Time;durP1;ratioP1;P1;durP2;ratioP2;P2;SDS_P1;SDS_P2;PMS_P1;PMS_P2;Temp;Humidity;BMP_temperature;BMP_pressure;BME280_temperature;BME280_humidity;BME280_pressure;Samples;Min_cycle;Max_cycle;Signal;HPM_P1;HPM_P2
2022/01/28 00:01:34;;;;;;;18.02;2.42;;;6.30;99.10;;;;;;5060449;28;20129;-83
2022/01/28 00:04:11;;;;;;;22.80;3.25;;;6.30;99.30;;;;;;5078047;28;20044;-83
2022/01/28 00:06:37;;;;;;;32.42;4.13;;;6.40;99.40;;;;;;5094396;28;20079;-83
2022/01/28 00:09:03;;;;;;;29.42;3.25;;;6.40;99.70;;;;;;5093385;28;20086;-83
2022/01/28 00:11:28;;;;;;;19.50;2.45;;;6.40;99.90;;;;;;5093646;28;20056;-82
2022/01/28 00:14:04;;;;;;;26.05;2.92;;;6.30;99.90;;;;;;5093405;28;20048;-82
2022/01/28 00:17:18;;;;;;;24.73;3.03;;;6.20;99.90;;;;;;5093607;28;20494;-83
2022/01/28 00:38:48;;;;;;;25.77;3.00;;;6.30;99.90;;;;;;5092998;28;20475;-83
2022/01/28 00:41:15;;;;;;;37.17;3.78;;;6.30;99.90;;;;;;5075809;28;20131;-83
2022/01/28 00:43:41;;;;;;;28.13;3.70;;;6.20;99.80;;;;;;5076139;28;20044;-83
2022/01/28 00:46:07;;;;;;;32.75;4.40;;;6.20;99.90;;;;;;5093028;28;20048;-83
2022/01/28 00:48:32;;;;;;;34.88;3.08;;;6.30;99.60;;;;;;5093179;28;20399;-83
2022/01/28 00:50:58;;;;;;;22.92;3.13;;;6.20;99.40;;;;;;5075855;28;20048;-83
2022/01/28 00:53:24;;;;;;;28.88;2.75;;;6.20;99.20;;;;;;5092867;28;20036;-83
2022/01/28 00:55:49;;;;;;;25.08;2.83;;;6.20;99.00;;;;;;5092695;28;20051;-83
2022/01/28 00:58:15;;;;;;;18.92;2.55;;;6.20;99.00;;;;;;5092482;28;20044;-83
2022/01/28 01:00:41;;;;;;;23.80;2.72;;;6.20;98.90;;;;;;5075500;28;20131;-82
2022/01/28 01:03:07;;;;;;;20.50;2.40;;;6.30;99.00;;;;;;5075915;28;20143;-83
2022/01/28 01:05:34;;;;;;;34.97;3.25;;;6.30;98.70;;;;;;5092756;28;20098;-83
2022/01/28 01:08:04;;;;;;;24.75;2.80;;;6.30;98.60;;;;;;5092754;28;20048;-82
2022/01/28 01:10:31;;;;;;;27.60;2.75;;;6.20;98.90;;;;;;5092716;28;20475;-83
2022/01/28 01:12:57;;;;;;;25.55;3.08;;;6.30;99.00;;;;;;5076411;28;20055;-83
2022/01/28 01:15:26;;;;;;;21.92;2.78;;;6.20;98.90;;;;;;5093753;28;20044;-83
2022/01/28 01:23:15;;;;;;;22.10;2.90;;;6.20;97.50;;;;;;5092314;28;20044;-82
2022/01/28 01:25:50;;;;;;;24.83;2.55;;;6.10;97.10;;;;;;5076017;28;20040;-83
2022/01/28 01:28:19;;;;;;;22.52;2.83;;;6.10;97.40;;;;;;5076768;28;20055;-82
2022/01/28 01:30:46;;;;;;;22.80;1.95;;;6.10;97.40;;;;;;5091708;28;20505;-83
2022/01/28 01:33:13;;;;;;;20.08;2.20;;;6.10;97.10;;;;;;5092568;28;20048;-82
2022/01/28 01:35:39;;;;;;;28.75;3.13;;;6.10;97.00;;;;;;5075707;28;20058;-83
2022/01/28 01:38:08;;;;;;;23.23;2.65;;;6.20;97.40;;;;;;5092474;28;20051;-83
2022/01/28 01:40:43;;;;;;;21.20;3.67;;;6.20;97.40;;;;;;5092187;28;20550;-83
2022/01/28 01:45:55;;;;;;;29.85;3.13;;;6.30;97.50;;;;;;5079739;28;20083;-83
2022/01/28 01:53:50;;;;;;;19.15;2.80;;;6.20;97.90;;;;;;5096630;28;20086;-83
2022/01/28 01:56:16;;;;;;;30.65;3.88;;;6.20;98.20;;;;;;5096295;28;20044;-83
2022/01/28 01:58:42;;;;;;;19.38;2.88;;;6.30;98.20;;;;;;5079073;28;20113;-83
2022/01/28 02:01:07;;;;;;;33.75;3.50;;;6.40;98.30;;;;;;5095847;28;20475;-83
2022/01/28 02:03:33;;;;;;;30.10;3.58;;;6.50;98.30;;;;;;5096040;28;20059;-83
2022/01/28 02:06:00;;;;;;;38.42;3.72;;;6.50;98.30;;;;;;5095713;28;20052;-82
2022/01/28 02:08:31;;;;;;;26.42;2.95;;;6.60;98.40;;;;;;5078893;28;20062;-83
2022/01/28 02:10:59;;;;;;;35.50;3.95;;;6.70;98.40;;;;;;5095665;28;20479;-82
2022/01/28 02:13:25;;;;;;;31.60;3.90;;;6.70;98.20;;;;;;5096212;28;20054;-83
2022/01/28 02:15:52;;;;;;;33.53;4.05;;;6.70;98.20;;;;;;5078676;28;20105;-83
2022/01/28 02:18:18;;;;;;;36.20;3.83;;;6.70;98.20;;;;;;5095573;28;20055;-83
2022/01/28 02:20:48;;;;;;;28.00;3.50;;;6.60;98.20;;;;;;5094776;28;20052;-83
2022/01/28 02:23:14;;;;;;;25.80;3.05;;;6.60;98.30;;;;;;5096245;28;20048;-83
2022/01/28 02:25:39;;;;;;;35.53;3.70;;;6.70;98.30;;;;;;5095586;28;20506;-83
2022/01/28 02:28:08;;;;;;;30.00;3.35;;;6.60;98.10;;;;;;5096439;28;20051;-83
2022/01/28 02:30:34;;;;;;;35.55;3.70;;;6.70;98.10;;;;;;5095708;28;20153;-83
2022/01/28 02:33:19;;;;;;;29.08;2.78;;;6.70;98.00;;;;;;5095624;28;20079;-82
2022/01/28 02:35:46;;;;;;;24.77;3.83;;;6.70;98.00;;;;;;5078431;28;20122;-82
2022/01/28 02:38:15;;;;;;;35.40;4.68;;;6.70;98.00;;;;;;5095702;28;20043;-83
2022/01/28 02:40:46;;;;;;;22.50;4.25;;;6.80;98.00;;;;;;5129700;27;20043;-83
2022/01/28 02:45:47;;;;;;;27.42;3.80;;;6.90;97.90;;;;;;5095047;28;20475;-83
2022/01/28 02:48:20;;;;;;;25.77;3.40;;;6.90;97.90;;;;;;5078821;28;20059;-83
2022/01/28 02:51:31;;;;;;;36.22;3.92;;;6.90;97.90;;;;;;5095505;28;20051;-83
2022/01/28 02:53:44;;;;;;;33.83;4.15;;;6.80;97.90;;;;;;5087420;28;20052;-83
2022/01/28 02:56:15;;;;;;;30.80;3.80;;;6.90;98.00;;;;;;5129142;27;20051;-83
2022/01/28 02:58:42;;;;;;;30.48;3.35;;;6.90;97.80;;;;;;5094876;28;20128;-82
2022/01/28 03:01:08;;;;;;;29.23;3.65;;;6.90;97.80;;;;;;5094193;28;20032;-83
2022/01/28 03:03:34;;;;;;;33.28;4.55;;;6.90;97.90;;;;;;5094979;28;20118;-83
2022/01/28 03:06:00;;;;;;;35.58;4.32;;;6.80;97.90;;;;;;5095235;28;20044;-82
2022/01/28 03:08:29;;;;;;;32.85;4.55;;;6.70;97.70;;;;;;5077856;28;20094;-82
2022/01/28 03:13:34;;;;;;;30.83;3.60;;;6.70;97.50;;;;;;5094559;28;20048;-82
2022/01/28 03:16:12;;;;;;;24.45;3.03;;;6.70;96.90;;;;;;5079686;28;20052;-82
2022/01/28 03:18:52;;;;;;;27.17;3.03;;;6.70;96.30;;;;;;5094778;28;20131;-82
2022/01/28 03:21:37;;;;;;;29.98;3.45;;;6.70;96.00;;;;;;5093967;28;20040;-82
2022/01/28 03:24:05;;;;;;;26.67;3.40;;;6.70;95.90;;;;;;5094831;28;20560;-82
2022/01/28 03:26:31;;;;;;;21.15;3.20;;;6.70;95.60;;;;;;5094404;28;20399;-82
2022/01/28 03:28:56;;;;;;;30.75;3.83;;;6.70;95.70;;;;;;5077413;28;20078;-82
2022/01/28 03:31:22;;;;;;;33.05;2.95;;;6.70;95.50;;;;;;5076987;28;20052;-82
2022/01/28 03:33:48;;;;;;;24.13;3.33;;;6.70;95.60;;;;;;5077393;28;20036;-82
2022/01/28 03:36:14;;;;;;;22.48;2.90;;;6.60;95.40;;;;;;5094442;28;20051;-82
2022/01/28 03:38:41;;;;;;;31.08;3.67;;;6.70;95.60;;;;;;5077301;28;20087;-82
2022/01/28 03:41:13;;;;;;;25.63;2.67;;;6.70;95.50;;;;;;5094432;28;20051;-83
2022/01/28 03:43:39;;;;;;;31.20;3.78;;;6.60;95.30;;;;;;5077465;28;20086;-82
2022/01/28 03:46:05;;;;;;;27.08;4.13;;;6.80;95.30;;;;;;5094175;28;20036;-82
2022/01/28 03:48:31;;;;;;;26.48;2.90;;;6.70;95.30;;;;;;5077207;28;20044;-82
2022/01/28 03:50:56;;;;;;;23.40;3.33;;;6.80;95.20;;;;;;5093711;28;20055;-81
2022/01/28 03:53:22;;;;;;;20.05;2.70;;;6.80;95.20;;;;;;5093823;28;20047;-82
2022/01/28 03:55:49;;;;;;;21.42;3.58;;;6.80;95.40;;;;;;5094166;28;20047;-83
2022/01/28 03:58:15;;;;;;;30.63;3.63;;;6.80;95.20;;;;;;5077332;28;20044;-82
2022/01/28 04:00:41;;;;;;;23.98;3.35;;;6.80;95.10;;;;;;5076125;28;20477;-82
2022/01/28 04:03:24;;;;;;;24.55;3.08;;;6.80;95.50;;;;;;5093562;28;20043;-82
2022/01/28 04:13:52;;;;;;;24.80;3.65;;;6.70;95.10;;;;;;5093514;28;20048;-82
2022/01/28 04:19:20;;;;;;;21.48;2.60;;;6.60;95.10;;;;;;5055058;28;20044;-82
2022/01/28 04:21:46;;;;;;;25.27;2.65;;;6.60;95.00;;;;;;5067799;28;20055;-82
2022/01/28 04:24:13;;;;;;;23.23;2.83;;;6.50;95.00;;;;;;5077032;28;20066;-82
2022/01/28 04:26:39;;;;;;;29.35;2.92;;;6.40;95.00;;;;;;5077323;28;20059;-82
2022/01/28 04:29:06;;;;;;;22.60;3.35;;;6.50;95.10;;;;;;5093115;28;20048;-82
2022/01/28 04:31:31;;;;;;;25.02;2.63;;;6.50;95.30;;;;;;5092984;28;20083;-82
2022/01/28 04:34:00;;;;;;;24.38;3.55;;;6.40;95.00;;;;;;5093710;28;20502;-82
2022/01/28 04:36:28;;;;;;;27.17;3.80;;;6.40;95.00;;;;;;5093268;28;20471;-82
2022/01/28 04:39:02;;;;;;;24.65;3.03;;;6.40;95.10;;;;;;5093243;28;20478;-82
2022/01/28 04:41:39;;;;;;;26.85;4.03;;;6.40;95.10;;;;;;5076636;28;20040;-82
2022/01/28 04:44:16;;;;;;;23.00;3.58;;;6.40;95.10;;;;;;5076781;28;20044;-82
2022/01/28 04:46:57;;;;;;;27.83;2.88;;;6.40;95.30;;;;;;5078104;28;20044;-82
2022/01/28 04:49:36;;;;;;;31.45;3.03;;;6.40;95.30;;;;;;5093323;28;20040;-82
2022/01/28 04:52:34;;;;;;;23.20;3.35;;;6.40;95.40;;;;;;5092827;28;20040;-82
2022/01/28 05:06:43;;;;;;;29.67;4.55;;;6.50;95.90;;;;;;5063762;28;20053;-82
2022/01/28 05:24:12;;;;;;;30.20;3.03;;;6.40;96.00;;;;;;5097217;28;20142;-82
2022/01/28 05:26:41;;;;;;;21.23;3.30;;;6.30;96.00;;;;;;5083445;28;20040;-82
2022/01/28 05:29:06;;;;;;;31.70;4.68;;;6.30;96.00;;;;;;5096938;28;20475;-82
2022/01/28 05:31:32;;;;;;;30.70;3.63;;;6.30;96.10;;;;;;5095979;28;20089;-82
2022/01/28 05:33:58;;;;;;;40.97;3.58;;;6.40;96.00;;;;;;5079422;28;20036;-82
2022/01/28 05:36:24;;;;;;;29.42;3.05;;;6.40;96.10;;;;;;5096870;28;20051;-82
2022/01/28 05:38:49;;;;;;;32.08;3.13;;;6.40;96.00;;;;;;5080463;28;20055;-82
2022/01/28 05:41:16;;;;;;;28.60;3.60;;;6.40;95.90;;;;;;5079242;28;20046;-82
2022/01/28 05:43:41;;;;;;;27.63;3.67;;;6.30;95.90;;;;;;5096440;28;20044;-82
2022/01/28 05:46:10;;;;;;;28.05;3.42;;;6.30;96.00;;;;;;5096167;28;20040;-82
2022/01/28 05:48:36;;;;;;;36.97;4.72;;;6.40;96.00;;;;;;5095944;28;20554;-82
2022/01/28 05:51:01;;;;;;;27.80;3.40;;;6.50;96.00;;;;;;5095754;28;20130;-82
2022/01/28 05:53:27;;;;;;;27.08;3.70;;;6.40;96.00;;;;;;5079215;28;20093;-82
2022/01/28 05:55:53;;;;;;;28.00;3.65;;;6.60;96.00;;;;;;5096095;28;20044;-82
2022/01/28 05:58:19;;;;;;;37.80;4.45;;;6.40;95.90;;;;;;5095856;28;20040;-82
2022/01/28 06:00:44;;;;;;;33.92;3.70;;;6.50;95.80;;;;;;5095787;28;20447;-82
2022/01/28 06:03:11;;;;;;;25.83;2.90;;;6.50;95.90;;;;;;5095492;28;20095;-82
2022/01/28 06:05:36;;;;;;;27.17;2.85;;;6.50;95.90;;;;;;5095882;28;20048;-82
2022/01/28 06:08:02;;;;;;;32.92;4.10;;;6.60;95.90;;;;;;5095719;28;20050;-82
2022/01/28 06:10:29;;;;;;;40.45;4.15;;;6.60;95.80;;;;;;5095087;28;20072;-82
2022/01/28 06:12:55;;;;;;;27.67;3.17;;;6.60;95.80;;;;;;5095284;28;20083;-82
2022/01/28 06:15:20;;;;;;;35.00;4.53;;;6.60;95.90;;;;;;5095677;28;20044;-82
2022/01/28 06:17:46;;;;;;;24.38;3.10;;;6.60;95.90;;;;;;5095769;28;20044;-82
2022/01/28 06:20:16;;;;;;;30.70;4.00;;;6.60;95.90;;;;;;5095302;28;20131;-82
2022/01/28 06:22:43;;;;;;;32.83;3.85;;;6.60;95.90;;;;;;5095536;28;20047;-82
2022/01/28 06:25:10;;;;;;;36.67;3.35;;;6.80;96.10;;;;;;5078384;28;20452;-82
2022/01/28 06:27:36;;;;;;;20.77;2.80;;;6.80;95.90;;;;;;5094623;28;20545;-82
2022/01/28 06:30:04;;;;;;;37.92;4.43;;;6.80;95.90;;;;;;5095518;28;20051;-82
2022/01/28 06:32:31;;;;;;;39.13;3.90;;;6.80;96.00;;;;;;5094735;28;20449;-82
2022/01/28 06:34:57;;;;;;;21.30;3.20;;;6.80;96.00;;;;;;5095391;28;20056;-82
2022/01/28 06:37:22;;;;;;;24.42;3.90;;;6.80;96.20;;;;;;5095276;28;20135;-82
2022/01/28 06:39:48;;;;;;;25.50;3.67;;;6.90;96.20;;;;;;5078355;28;20040;-82
2022/01/28 06:42:14;;;;;;;28.25;3.50;;;6.90;96.20;;;;;;5095283;28;20132;-83
2022/01/28 06:44:40;;;;;;;35.25;4.03;;;7.00;96.40;;;;;;5095318;28;20055;-82
2022/01/28 06:47:10;;;;;;;25.60;2.92;;;6.90;96.50;;;;;;5095326;28;20055;-82
2022/01/28 06:49:37;;;;;;;37.63;4.25;;;6.90;96.70;;;;;;5095133;28;20040;-82
2022/01/28 06:52:03;;;;;;;41.80;5.28;;;7.00;96.60;;;;;;5094963;28;20055;-82
2022/01/28 06:54:29;;;;;;;45.92;5.40;;;6.90;96.50;;;;;;5094895;28;20128;-82
2022/01/28 06:56:54;;;;;;;37.45;4.55;;;6.90;96.50;;;;;;5078075;28;20082;-82
2022/01/28 06:59:20;;;;;;;34.70;3.88;;;7.00;96.50;;;;;;5094546;28;20044;-82
2022/01/28 07:01:45;;;;;;;28.00;3.92;;;6.90;96.30;;;;;;5094082;28;20051;-82
2022/01/28 07:04:11;;;;;;;36.65;4.57;;;6.90;96.20;;;;;;5094734;28;20554;-82
2022/01/28 07:06:37;;;;;;;30.52;3.05;;;6.80;96.30;;;;;;5094775;28;20479;-82
2022/01/28 07:09:03;;;;;;;28.27;4.38;;;6.70;96.30;;;;;;5094556;28;20044;-82
2022/01/28 07:11:28;;;;;;;31.75;3.38;;;6.70;96.40;;;;;;5077655;28;20048;-82
2022/01/28 07:13:54;;;;;;;34.03;3.95;;;6.80;96.30;;;;;;5094177;28;20048;-82
2022/01/28 07:16:20;;;;;;;29.15;3.90;;;6.70;96.10;;;;;;5078181;28;20036;-82
2022/01/28 07:18:46;;;;;;;26.63;3.05;;;6.80;96.10;;;;;;5094871;28;20075;-82
2022/01/28 07:21:11;;;;;;;31.45;3.63;;;6.70;96.00;;;;;;5076960;28;20083;-82
2022/01/28 07:23:37;;;;;;;33.97;3.63;;;6.70;95.80;;;;;;5077625;28;20048;-81
2022/01/28 07:26:03;;;;;;;29.80;3.42;;;6.70;95.70;;;;;;5060731;28;20043;-82
2022/01/28 07:28:31;;;;;;;31.42;3.95;;;6.60;95.80;;;;;;5093945;28;20145;-82
2022/01/28 07:30:56;;;;;;;14.32;2.92;;;6.60;95.90;;;;;;5094486;28;20428;-82
2022/01/28 07:33:22;;;;;;;26.02;2.78;;;6.60;95.90;;;;;;5094202;28;20083;-82
2022/01/28 07:35:48;;;;;;;34.78;3.45;;;6.70;95.90;;;;;;5093842;28;20395;-82
2022/01/28 07:38:13;;;;;;;36.78;3.03;;;6.80;95.80;;;;;;5076571;28;20146;-82
2022/01/28 07:40:39;;;;;;;30.73;3.30;;;6.70;95.80;;;;;;5093346;28;20036;-82
2022/01/28 07:43:05;;;;;;;30.10;4.00;;;6.90;95.80;;;;;;5076826;28;20040;-81
2022/01/28 07:45:30;;;;;;;28.88;2.60;;;6.90;95.80;;;;;;5093858;28;20140;-82
2022/01/28 07:47:56;;;;;;;27.65;3.08;;;6.90;95.90;;;;;;5093872;28;20040;-82
2022/01/28 07:50:22;;;;;;;34.15;4.45;;;7.00;95.90;;;;;;5093839;28;20059;-82
2022/01/28 07:52:47;;;;;;;36.58;4.00;;;6.90;96.10;;;;;;5076865;28;20040;-74
2022/01/28 07:55:14;;;;;;;35.03;3.50;;;6.90;96.20;;;;;;5093721;28;20048;-73
2022/01/28 07:57:42;;;;;;;30.13;3.83;;;6.90;96.30;;;;;;5093848;28;20391;-74
2022/01/28 08:00:10;;;;;;;29.98;3.60;;;7.00;96.40;;;;;;5093539;28;20044;-82
2022/01/28 08:02:36;;;;;;;37.38;3.40;;;7.00;96.30;;;;;;5093447;28;20124;-78
2022/01/28 08:05:02;;;;;;;28.05;3.65;;;7.00;96.40;;;;;;5093615;28;20491;-81
2022/01/28 08:07:28;;;;;;;33.58;4.00;;;7.00;96.40;;;;;;5127590;27;20040;-78
2022/01/28 08:09:53;;;;;;;30.60;3.50;;;7.00;96.50;;;;;;5084146;28;20055;-78
2022/01/28 08:12:19;;;;;;;36.97;4.10;;;6.80;96.70;;;;;;5046710;28;20133;-77
2022/01/28 08:14:45;;;;;;;23.73;3.80;;;6.70;96.60;;;;;;5062688;28;20171;-77
2022/01/28 08:17:11;;;;;;;33.03;4.40;;;6.80;96.60;;;;;;5062611;28;20058;-78
2022/01/28 08:19:37;;;;;;;25.25;3.67;;;6.70;96.70;;;;;;5061401;28;21572;-78
2022/01/28 08:22:04;;;;;;;34.33;3.75;;;6.70;96.70;;;;;;5062048;28;20063;-77
2022/01/28 08:24:30;;;;;;;33.55;4.80;;;6.80;96.70;;;;;;5063291;28;21164;-80
2022/01/28 08:26:56;;;;;;;29.30;3.80;;;6.80;96.70;;;;;;5063355;28;20055;-77
2022/01/28 08:29:22;;;;;;;22.55;2.63;;;6.90;96.60;;;;;;5046735;28;20044;-78
2022/01/28 08:31:47;;;;;;;23.65;2.95;;;7.00;96.60;;;;;;5063972;28;20048;-78
2022/01/28 08:34:13;;;;;;;34.33;3.35;;;7.10;96.60;;;;;;5063108;28;20373;-78
2022/01/28 08:36:39;;;;;;;28.65;3.13;;;7.20;96.30;;;;;;5086783;27;21426;-76
2022/01/28 08:39:06;;;;;;;37.08;4.07;;;7.20;96.10;;;;;;5046487;28;20055;-74
2022/01/28 08:41:34;;;;;;;28.95;2.92;;;7.10;96.10;;;;;;5062805;28;21063;-75
2022/01/28 08:44:00;;;;;;;32.35;3.17;;;7.10;96.10;;;;;;5063070;28;20052;-73
2022/01/28 08:46:26;;;;;;;31.52;3.65;;;7.10;96.20;;;;;;5086934;27;20402;-77
2022/01/28 08:48:52;;;;;;;30.05;3.58;;;7.00;96.30;;;;;;5088181;28;20047;-74
2022/01/28 08:51:17;;;;;;;28.23;3.53;;;7.00;96.30;;;;;;5056940;28;20073;-74
2022/01/28 08:53:43;;;;;;;32.45;3.65;;;6.90;96.30;;;;;;5091190;28;20044;-75
2022/01/28 08:56:10;;;;;;;25.60;3.05;;;6.90;96.50;;;;;;5096187;28;20047;-73
2022/01/28 08:58:37;;;;;;;22.48;3.17;;;7.00;96.40;;;;;;5100203;28;20052;-72
2022/01/28 09:01:03;;;;;;;30.00;4.20;;;7.00;96.50;;;;;;5075254;28;20052;-73
2022/01/28 09:03:29;;;;;;;38.25;4.22;;;7.00;96.60;;;;;;5092665;28;20081;-73
2022/01/28 09:05:54;;;;;;;28.75;3.90;;;7.00;96.70;;;;;;5092743;28;20059;-73
2022/01/28 09:08:20;;;;;;;35.30;3.45;;;7.00;96.80;;;;;;5092763;28;20052;-73
2022/01/28 09:10:56;;;;;;;24.80;3.72;;;7.10;96.80;;;;;;5092660;28;20047;-73
2022/01/28 09:13:26;;;;;;;;;;;7.10;96.80;;;;;;5092945;28;20063;-73
2022/01/28 09:15:55;;;;;;;29.60;2.78;;;7.10;96.80;;;;;;5080200;28;19921;-74
2022/01/28 09:18:21;;;;;;;28.85;4.78;;;7.20;96.90;;;;;;5071653;28;20098;-73
2022/01/28 09:20:48;;;;;;;20.15;3.03;;;7.20;96.90;;;;;;5088844;28;20056;-73
2022/01/28 09:23:14;;;;;;;34.10;3.20;;;7.10;97.00;;;;;;5072761;28;20052;-73
2022/01/28 09:25:40;;;;;;;27.02;4.43;;;7.30;97.10;;;;;;5073735;28;20048;-72
2022/01/28 09:28:06;;;;;;;28.48;3.78;;;7.30;97.00;;;;;;5073363;28;20067;-74
2022/01/28 09:30:32;;;;;;;31.00;3.55;;;7.30;97.00;;;;;;5071913;28;20488;-74
2022/01/28 09:32:58;;;;;;;28.95;3.65;;;7.40;97.00;;;;;;5071782;28;20062;-73
2022/01/28 09:35:25;;;;;;;36.00;3.95;;;7.40;96.90;;;;;;5055492;28;20056;-73
2022/01/28 09:37:51;;;;;;;32.58;5.00;;;7.50;97.00;;;;;;5072238;28;20045;-73
2022/01/28 09:40:18;;;;;;;30.75;3.17;;;7.60;96.80;;;;;;5072019;28;20098;-73
2022/01/28 09:42:46;;;;;;;32.95;3.63;;;7.50;96.80;;;;;;5072178;28;20044;-73
2022/01/28 09:45:16;;;;;;;25.35;3.03;;;7.70;96.80;;;;;;5055575;28;20087;-74
2022/01/28 09:47:42;;;;;;;28.60;3.42;;;7.90;96.70;;;;;;5067527;28;20306;-78
2022/01/28 09:50:08;;;;;;;27.77;3.75;;;7.90;96.50;;;;;;5061296;28;20082;-75
2022/01/28 09:52:35;;;;;;;33.67;4.40;;;8.00;96.60;;;;;;5045729;28;20782;-77
2022/01/28 09:55:01;;;;;;;29.63;3.20;;;8.00;96.60;;;;;;5070487;28;20048;-74
2022/01/28 09:57:27;;;;;;;33.67;3.85;;;8.10;96.30;;;;;;5088555;28;20462;-74
2022/01/28 09:59:53;;;;;;;22.30;2.90;;;8.10;96.40;;;;;;5088880;28;20040;-74
2022/01/28 10:02:19;;;;;;;23.63;2.92;;;8.10;96.20;;;;;;5073615;28;20166;-73
2022/01/28 10:04:45;;;;;;;21.52;3.33;;;8.10;96.20;;;;;;5092197;28;20044;-74
2022/01/28 10:07:14;;;;;;;30.08;3.28;;;8.10;96.10;;;;;;5075439;28;20045;-73
2022/01/28 10:09:56;;;;;;;32.47;3.60;;;8.00;96.10;;;;;;5058804;28;20052;-73
2022/01/28 10:12:41;;;;;;;35.20;3.78;;;8.00;96.30;;;;;;5092538;28;20048;-73
2022/01/28 10:15:20;;;;;;;33.72;3.60;;;8.10;96.40;;;;;;5076407;28;20060;-73
2022/01/28 10:17:58;;;;;;;29.90;3.33;;;8.10;96.30;;;;;;5109305;28;20040;-74
2022/01/28 10:20:25;;;;;;;33.58;4.15;;;8.10;96.40;;;;;;5074978;28;20060;-73
2022/01/28 10:22:57;;;;;;;25.30;3.65;;;8.20;96.40;;;;;;5092202;28;20493;-74
2022/01/28 10:25:37;;;;;;;31.42;3.42;;;8.10;96.50;;;;;;5075406;28;20051;-73
2022/01/28 10:28:05;;;;;;;30.67;3.47;;;8.10;96.50;;;;;;5075160;28;20052;-73
2022/01/28 10:30:36;;;;;;;47.50;5.35;;;8.10;96.70;;;;;;5109221;28;20057;-73
2022/01/28 10:33:15;;;;;;;28.45;3.58;;;8.10;96.60;;;;;;5108810;28;20169;-73
2022/01/28 10:35:53;;;;;;;37.40;3.50;;;8.20;96.70;;;;;;5075014;28;20051;-73
2022/01/28 10:38:41;;;;;;;36.30;3.65;;;8.30;96.70;;;;;;5091816;28;20063;-86
2022/01/28 10:41:16;;;;;;;44.38;5.00;;;8.30;96.50;;;;;;5074916;28;20070;-70
2022/01/28 10:43:56;;;;;;;23.63;3.20;;;8.30;96.80;;;;;;5075397;28;20377;-72
2022/01/28 10:46:26;;;;;;;28.58;3.97;;;8.20;96.70;;;;;;5076040;28;20056;-71
2022/01/28 10:48:56;;;;;;;32.10;3.83;;;8.20;96.50;;;;;;5058453;28;20052;-71
2022/01/28 10:51:35;;;;;;;33.45;3.28;;;8.30;96.40;;;;;;5074844;28;20114;-72
2022/01/28 10:54:09;;;;;;;25.33;3.65;;;8.40;96.50;;;;;;5074800;28;20059;-71
2022/01/28 10:57:09;;;;;;;36.55;3.95;;;8.60;96.30;;;;;;5108624;28;20064;-72
2022/01/28 10:59:37;;;;;;;27.95;3.33;;;8.60;96.00;;;;;;5075262;28;20519;-73
2022/01/28 11:02:04;;;;;;;26.77;3.20;;;8.60;96.00;;;;;;5073779;28;20044;-73
2022/01/28 11:04:31;;;;;;;26.48;3.80;;;8.70;95.70;;;;;;5074086;28;20127;-74
2022/01/28 11:06:58;;;;;;;29.95;3.60;;;8.70;95.60;;;;;;5074155;28;20048;-71
2022/01/28 11:09:24;;;;;;;31.83;3.60;;;8.60;95.70;;;;;;5057725;28;20479;-75
2022/01/28 11:11:51;;;;;;;29.80;3.65;;;8.60;95.80;;;;;;5091006;28;20495;-72
2022/01/28 11:14:18;;;;;;;28.10;3.50;;;8.80;95.80;;;;;;5074052;28;20060;-72
2022/01/28 11:16:44;;;;;;;25.88;3.22;;;8.50;95.70;;;;;;5057696;28;20052;-79
2022/01/28 11:19:13;;;;;;;30.20;3.50;;;8.60;96.00;;;;;;5076083;28;20044;-77
2022/01/28 11:21:44;;;;;;;31.35;3.28;;;8.80;95.80;;;;;;5111225;28;20391;-80
2022/01/28 11:24:14;;;;;;;28.88;3.13;;;8.80;95.40;;;;;;5074641;28;20044;-76
2022/01/28 11:27:01;;;;;;;26.02;3.67;;;8.70;95.40;;;;;;5074041;28;20054;-78
2022/01/28 11:29:28;;;;;;;31.38;3.00;;;8.70;95.40;;;;;;5108007;28;20055;-78
2022/01/28 11:32:08;;;;;;;29.95;2.90;;;8.70;95.40;;;;;;5107425;28;20088;-78
2022/01/28 11:34:34;;;;;;;28.92;3.55;;;8.60;95.50;;;;;;5073928;28;20048;-79
2022/01/28 11:37:03;;;;;;;26.88;3.00;;;8.60;95.50;;;;;;5073967;28;20055;-78
2022/01/28 11:39:28;;;;;;;32.22;4.10;;;8.50;95.60;;;;;;5073773;28;20049;-78
2022/01/28 11:42:25;;;;;;;24.00;3.40;;;8.60;95.50;;;;;;5056772;28;20457;-79
2022/01/28 11:44:50;;;;;;;23.85;2.72;;;8.70;95.50;;;;;;5074458;28;20044;-81
2022/01/28 11:47:24;;;;;;;23.58;2.85;;;8.80;95.50;;;;;;5078281;28;20098;-78
2022/01/28 11:49:55;;;;;;;25.30;3.22;;;8.80;95.40;;;;;;5074328;28;20048;-77
2022/01/28 11:52:25;;;;;;;23.83;2.50;;;9.20;95.30;;;;;;5108334;28;20136;-75
2022/01/28 11:54:52;;;;;;;26.70;3.78;;;9.10;94.80;;;;;;5073424;28;20045;-79
2022/01/28 11:57:18;;;;;;;22.70;2.78;;;9.10;94.90;;;;;;5057047;28;20099;-81
2022/01/28 11:59:46;;;;;;;27.88;3.05;;;9.00;94.80;;;;;;5107226;28;20088;-77
2022/01/28 12:02:14;;;;;;;31.10;3.30;;;8.90;94.60;;;;;;5072835;28;20425;-77
2022/01/28 12:04:41;;;;;;;29.98;3.40;;;8.90;94.80;;;;;;5073302;28;20135;-78
2022/01/28 12:07:10;;;;;;;31.05;3.40;;;9.10;94.70;;;;;;5107331;28;20044;-76
2022/01/28 12:09:38;;;;;;;25.88;2.80;;;9.40;94.60;;;;;;5073397;28;20047;-73
2022/01/28 12:12:09;;;;;;;28.67;2.88;;;9.60;94.50;;;;;;5073290;28;20474;-77
2022/01/28 12:14:50;;;;;;;24.30;3.40;;;9.70;94.30;;;;;;5073435;28;20056;-75
2022/01/28 12:17:31;;;;;;;25.13;3.65;;;9.60;94.30;;;;;;5072798;28;20048;-76
2022/01/28 12:20:15;;;;;;;31.75;4.75;;;9.20;94.10;;;;;;5072494;28;20048;-76
2022/01/28 12:23:02;;;;;;;29.58;3.10;;;9.10;94.00;;;;;;5073884;28;20118;-77
2022/01/28 12:25:43;;;;;;;29.92;3.40;;;9.30;94.70;;;;;;5072383;28;20040;-76
2022/01/28 12:28:14;;;;;;;29.55;3.28;;;9.40;94.50;;;;;;5072620;28;20396;-76
2022/01/28 12:30:43;;;;;;;25.65;3.95;;;9.60;94.00;;;;;;5072854;28;20488;-76
2022/01/28 12:33:10;;;;;;;27.05;3.30;;;9.80;93.70;;;;;;5073604;28;20045;-76
2022/01/28 12:35:38;;;;;;;23.23;3.28;;;10.20;93.50;;;;;;5072785;28;20052;-76
2022/01/28 12:38:05;;;;;;;26.77;2.72;;;10.20;93.30;;;;;;5089567;28;20052;-76
2022/01/28 12:40:41;;;;;;;26.92;2.70;;;10.00;93.40;;;;;;5072682;28;20143;-77
2022/01/28 12:43:08;;;;;;;23.08;2.72;;;9.80;93.60;;;;;;5072749;28;20045;-77
2022/01/28 12:45:34;;;;;;;22.20;2.80;;;10.30;93.40;;;;;;5072790;28;20040;-76
2022/01/28 12:48:01;;;;;;;20.40;2.80;;;10.90;92.50;;;;;;5072669;28;20045;-76
2022/01/28 12:50:32;;;;;;;27.58;2.58;;;10.70;92.50;;;;;;5106526;28;20049;-76
2022/01/28 12:52:58;;;;;;;17.40;2.63;;;10.50;92.90;;;;;;5072758;28;20101;-77
2022/01/28 12:55:32;;;;;;;18.35;3.03;;;10.10;92.90;;;;;;5072891;28;20487;-76
2022/01/28 12:57:58;;;;;;;26.08;3.28;;;9.80;93.40;;;;;;5074062;28;20475;-76
2022/01/28 13:00:24;;;;;;;23.35;3.53;;;10.20;93.50;;;;;;5072341;28;20131;-76
2022/01/28 13:02:51;;;;;;;23.42;2.53;;;10.80;93.10;;;;;;5072127;28;20122;-76
2022/01/28 13:05:33;;;;;;;23.58;2.92;;;11.30;92.50;;;;;;5107182;28;20052;-77
2022/01/28 13:10:43;;;;;;;20.48;3.90;;;11.40;92.10;;;;;;5072536;28;20059;-76
2022/01/28 13:13:12;;;;;;;25.85;2.85;;;11.20;91.80;;;;;;5072491;28;20045;-77
2022/01/28 13:15:39;;;;;;;17.67;3.13;;;10.50;92.40;;;;;;5072558;28;20109;-77
2022/01/28 13:18:06;;;;;;;14.52;2.40;;;10.10;92.80;;;;;;5073412;28;20055;-76
2022/01/28 13:20:41;;;;;;;20.98;2.58;;;9.60;93.30;;;;;;5071745;28;20056;-76
2022/01/28 13:23:09;;;;;;;20.33;2.55;;;9.30;93.60;;;;;;5089515;28;20048;-76
2022/01/28 13:25:35;;;;;;;31.45;3.17;;;9.30;93.80;;;;;;5072392;28;20048;-77
2022/01/28 13:28:04;;;;;;;26.27;3.40;;;9.40;93.90;;;;;;5072333;28;20045;-76
2022/01/28 13:30:35;;;;;;;19.52;2.88;;;9.40;93.80;;;;;;5072460;28;20052;-76
2022/01/28 13:33:07;;;;;;;20.27;2.47;;;9.30;93.80;;;;;;5071969;28;20060;-76
2022/01/28 13:35:35;;;;;;;28.35;4.78;;;9.70;93.70;;;;;;5072253;28;20048;-76
2022/01/28 13:38:07;;;;;;;26.02;3.42;;;10.00;93.30;;;;;;5076229;28;20488;-76
2022/01/28 13:40:36;;;;;;;29.70;4.00;;;10.10;93.40;;;;;;5075979;28;20468;-75
2022/01/28 13:43:05;;;;;;;21.52;3.20;;;10.40;93.20;;;;;;5077180;28;20060;-78
2022/01/28 13:45:42;;;;;;;26.65;3.33;;;10.20;93.10;;;;;;5075707;28;20044;-77
2022/01/28 13:48:07;;;;;;;;;;;9.90;93.20;;;;;;5076403;28;20049;-76
2022/01/28 13:50:37;;;;;;;20.97;3.00;;;9.80;93.40;;;;;;5076772;28;19941;-75
2022/01/28 13:54:09;;;;;;;24.55;3.75;;;9.80;93.40;;;;;;5110712;28;20055;-76
2022/01/28 13:56:07;;;;;;;24.75;3.55;;;9.60;93.50;;;;;;5077552;28;20049;-76
2022/01/28 13:58:48;;;;;;;32.78;4.20;;;9.60;93.40;;;;;;5109694;28;20445;-77
2022/01/28 14:01:15;;;;;;;23.13;4.78;;;9.30;93.60;;;;;;5075234;28;20052;-77
2022/01/28 14:03:54;;;;;;;23.05;3.05;;;9.40;93.90;;;;;;5058550;28;20044;-77
2022/01/28 14:06:28;;;;;;;19.15;2.88;;;9.60;94.10;;;;;;5075568;28;20045;-77
2022/01/28 14:09:11;;;;;;;21.30;2.40;;;9.60;93.90;;;;;;5075465;28;20052;-79
2022/01/28 14:11:43;;;;;;;19.30;3.65;;;9.70;94.00;;;;;;5109314;28;20048;-75
2022/01/28 14:16:54;;;;;;;26.67;2.58;;;9.40;94.20;;;;;;5075297;28;20509;-77
2022/01/28 14:19:21;;;;;;;22.67;2.75;;;9.50;94.30;;;;;;5108910;28;20040;-80